IT-0133 weather

CdV Ass.Sp. Parvolo
Pramaggiore, Veneto, Italy

Public forecast

Using degrees Celsius for public forecast. Weather courtesy of forecast.io.

METAR (pilot weather report)

Closest report is Aviano Air Base, 14.5 nm (26.9 km) NNW. Retrieved 2019/07/18 13:55 UTC (22 minutes ago):

LIPA 181355Z 19007KT 9999 FEW050 BKN090 26/17 Q1012 RMK BKN VIS MIN 9999 WIND THR05 /////KT WIND THR23 /////KT A2989 BLU

TAF (pilot weather forecast)

Forecast is more than 12 hours old.

Closest forecast is Aviano Air Base, 14.5 nm (26.9 km) NNW. Retrieved 2015/11/03 12:24 UTC (4 years ago):

TAF TAF LIPA 031100Z 0312/0324 VRB03KT CAVOK